sensor_id;sensor_type;location;lat;lon;timestamp;P1;durP1;ratioP1;P2;durP2;ratioP2
53688;SDS011;39583;54.682;30.662;2022-07-23T05:44:20;380.40;;;350.90;;
53688;SDS011;39583;54.682;30.662;2022-07-23T05:46:47;257.92;;;239.13;;
53688;SDS011;39583;54.682;30.662;2022-07-23T05:49:18;221.00;;;204.88;;
53688;SDS011;39583;54.682;30.662;2022-07-23T05:51:57;170.30;;;158.63;;
53688;SDS011;39583;54.682;30.662;2022-07-23T05:54:34;117.55;;;110.45;;
53688;SDS011;39583;54.682;30.662;2022-07-23T05:57:01;120.70;;;113.43;;
53688;SDS011;39583;54.682;30.662;2022-07-23T05:59:29;131.93;;;123.85;;
53688;SDS011;39583;54.682;30.662;2022-07-23T06:01:56;130.15;;;122.43;;
53688;SDS011;39583;54.682;30.662;2022-07-23T06:04:22;138.35;;;130.07;;
53688;SDS011;39583;54.682;30.662;2022-07-23T06:07:05;134.90;;;126.53;;
53688;SDS011;39583;54.682;30.662;2022-07-23T06:09:31;155.40;;;145.70;;
53688;SDS011;39583;54.682;30.662;2022-07-23T06:11:57;140.45;;;131.70;;
53688;SDS011;39583;54.682;30.662;2022-07-23T06:14:24;149.88;;;140.77;;
53688;SDS011;39583;54.682;30.662;2022-07-23T06:16:54;147.55;;;138.48;;
53688;SDS011;39583;54.682;30.662;2022-07-23T06:19:21;153.80;;;144.48;;
53688;SDS011;39583;54.682;30.662;2022-07-23T06:21:48;113.13;;;106.25;;
53688;SDS011;39583;54.682;30.662;2022-07-23T06:24:16;76.53;;;72.15;;
53688;SDS011;39583;54.682;30.662;2022-07-23T06:26:42;97.00;;;91.15;;
53688;SDS011;39583;54.682;30.662;2022-07-23T06:29:09;59.70;;;55.95;;
53688;SDS011;39583;54.682;30.662;2022-07-23T06:31:36;116.65;;;109.70;;
53688;SDS011;39583;54.682;30.662;2022-07-23T06:34:02;82.45;;;77.53;;
53688;SDS011;39583;54.682;30.662;2022-07-23T06:36:28;69.10;;;64.95;;
53688;SDS011;39583;54.682;30.662;2022-07-23T06:38:55;102.07;;;95.90;;
53688;SDS011;39583;54.682;30.662;2022-07-23T06:41:21;65.80;;;61.95;;
53688;SDS011;39583;54.682;30.662;2022-07-23T06:43:48;73.97;;;69.63;;
53688;SDS011;39583;54.682;30.662;2022-07-23T06:46:21;80.38;;;75.55;;
53688;SDS011;39583;54.682;30.662;2022-07-23T06:48:48;67.47;;;63.50;;
53688;SDS011;39583;54.682;30.662;2022-07-23T06:51:15;81.45;;;76.53;;
53688;SDS011;39583;54.682;30.662;2022-07-23T06:53:41;72.05;;;67.70;;
53688;SDS011;39583;54.682;30.662;2022-07-23T06:56:08;74.93;;;70.20;;
53688;SDS011;39583;54.682;30.662;2022-07-23T06:58:35;77.82;;;73.20;;
53688;SDS011;39583;54.682;30.662;2022-07-23T07:01:01;95.10;;;89.20;;
53688;SDS011;39583;54.682;30.662;2022-07-23T07:03:28;81.40;;;76.47;;
53688;SDS011;39583;54.682;30.662;2022-07-23T07:05:54;78.45;;;73.82;;
53688;SDS011;39583;54.682;30.662;2022-07-23T07:08:23;65.30;;;61.28;;
53688;SDS011;39583;54.682;30.662;2022-07-23T07:10:49;74.25;;;69.95;;
53688;SDS011;39583;54.682;30.662;2022-07-23T07:13:16;72.20;;;67.85;;
53688;SDS011;39583;54.682;30.662;2022-07-23T07:15:42;82.38;;;77.53;;
53688;SDS011;39583;54.682;30.662;2022-07-23T07:18:09;81.22;;;76.43;;
53688;SDS011;39583;54.682;30.662;2022-07-23T07:20:35;76.18;;;71.38;;
53688;SDS011;39583;54.682;30.662;2022-07-23T07:23:01;76.25;;;71.75;;
53688;SDS011;39583;54.682;30.662;2022-07-23T07:25:28;70.07;;;65.80;;
53688;SDS011;39583;54.682;30.662;2022-07-23T07:27:54;59.67;;;56.22;;
53688;SDS011;39583;54.682;30.662;2022-07-23T07:30:21;35.00;;;33.08;;
53688;SDS011;39583;54.682;30.662;2022-07-23T07:32:47;46.67;;;43.85;;
53688;SDS011;39583;54.682;30.662;2022-07-23T07:35:14;53.13;;;50.08;;
53688;SDS011;39583;54.682;30.662;2022-07-23T07:37:40;41.78;;;39.47;;
53688;SDS011;39583;54.682;30.662;2022-07-23T07:40:07;57.50;;;53.78;;
53688;SDS011;39583;54.682;30.662;2022-07-23T07:42:34;34.75;;;32.78;;
53688;SDS011;39583;54.682;30.662;2022-07-23T07:45:00;21.27;;;19.90;;
53688;SDS011;39583;54.682;30.662;2022-07-23T07:47:26;52.25;;;49.17;;
53688;SDS011;39583;54.682;30.662;2022-07-23T07:49:53;31.10;;;29.02;;
53688;SDS011;39583;54.682;30.662;2022-07-23T07:52:19;47.10;;;44.25;;
53688;SDS011;39583;54.682;30.662;2022-07-23T07:54:46;60.35;;;56.85;;
53688;SDS011;39583;54.682;30.662;2022-07-23T07:57:12;44.92;;;42.40;;
53688;SDS011;39583;54.682;30.662;2022-07-23T07:59:38;37.28;;;35.05;;
53688;SDS011;39583;54.682;30.662;2022-07-23T08:02:05;64.38;;;60.53;;
53688;SDS011;39583;54.682;30.662;2022-07-23T08:04:31;42.55;;;39.80;;
53688;SDS011;39583;54.682;30.662;2022-07-23T08:06:57;71.32;;;67.15;;
53688;SDS011;39583;54.682;30.662;2022-07-23T08:09:24;55.15;;;51.80;;
53688;SDS011;39583;54.682;30.662;2022-07-23T08:11:50;35.83;;;33.80;;
53688;SDS011;39583;54.682;30.662;2022-07-23T08:14:17;16.05;;;15.15;;
53688;SDS011;39583;54.682;30.662;2022-07-23T08:16:44;16.40;;;15.25;;
53688;SDS011;39583;54.682;30.662;2022-07-23T08:19:10;13.00;;;12.27;;
53688;SDS011;39583;54.682;30.662;2022-07-23T08:21:37;14.95;;;13.95;;
53688;SDS011;39583;54.682;30.662;2022-07-23T08:24:03;12.38;;;11.55;;
53688;SDS011;39583;54.682;30.662;2022-07-23T08:26:30;18.35;;;17.00;;
53688;SDS011;39583;54.682;30.662;2022-07-23T08:28:56;13.55;;;12.70;;
53688;SDS011;39583;54.682;30.662;2022-07-23T08:31:23;11.52;;;10.40;;
53688;SDS011;39583;54.682;30.662;2022-07-23T08:33:49;11.82;;;11.13;;
53688;SDS011;39583;54.682;30.662;2022-07-23T08:36:15;21.85;;;20.67;;
53688;SDS011;39583;54.682;30.662;2022-07-23T08:38:42;19.20;;;18.08;;
53688;SDS011;39583;54.682;30.662;2022-07-23T08:41:09;13.15;;;12.38;;
53688;SDS011;39583;54.682;30.662;2022-07-23T08:43:35;11.27;;;10.65;;
53688;SDS011;39583;54.682;30.662;2022-07-23T08:46:02;13.30;;;12.48;;
53688;SDS011;39583;54.682;30.662;2022-07-23T08:48:31;16.92;;;15.88;;
53688;SDS011;39583;54.682;30.662;2022-07-23T08:51:00;16.67;;;15.52;;
53688;SDS011;39583;54.682;30.662;2022-07-23T08:53:28;33.95;;;31.98;;
53688;SDS011;39583;54.682;30.662;2022-07-23T08:55:57;38.17;;;35.95;;
53688;SDS011;39583;54.682;30.662;2022-07-23T08:58:27;25.02;;;23.73;;
53688;SDS011;39583;54.682;30.662;2022-07-23T09:00:53;41.92;;;39.35;;
53688;SDS011;39583;54.682;30.662;2022-07-23T09:03:21;18.70;;;17.65;;
53688;SDS011;39583;54.682;30.662;2022-07-23T09:05:51;41.25;;;38.85;;
53688;SDS011;39583;54.682;30.662;2022-07-23T09:08:23;15.15;;;14.30;;
53688;SDS011;39583;54.682;30.662;2022-07-23T09:10:56;22.75;;;21.50;;
53688;SDS011;39583;54.682;30.662;2022-07-23T09:16:23;14.00;;;13.13;;
53688;SDS011;39583;54.682;30.662;2022-07-23T09:21:36;28.27;;;26.75;;
53688;SDS011;39583;54.682;30.662;2022-07-23T09:24:05;29.88;;;28.17;;
53688;SDS011;39583;54.682;30.662;2022-07-23T09:31:41;21.08;;;19.90;;
53688;SDS011;39583;54.682;30.662;2022-07-23T09:34:11;36.83;;;34.83;;
53688;SDS011;39583;54.682;30.662;2022-07-23T09:36:48;23.90;;;22.65;;
53688;SDS011;39583;54.682;30.662;2022-07-23T09:39:24;40.72;;;38.42;;
53688;SDS011;39583;54.682;30.662;2022-07-23T09:41:52;44.45;;;41.50;;
53688;SDS011;39583;54.682;30.662;2022-07-23T09:44:19;24.17;;;22.80;;
53688;SDS011;39583;54.682;30.662;2022-07-23T09:46:50;43.17;;;40.72;;
53688;SDS011;39583;54.682;30.662;2022-07-23T09:49:24;35.00;;;33.08;;
53688;SDS011;39583;54.682;30.662;2022-07-23T09:51:54;19.92;;;18.90;;
53688;SDS011;39583;54.682;30.662;2022-07-23T09:57:00;19.40;;;18.33;;
53688;SDS011;39583;54.682;30.662;2022-07-23T09:59:38;13.82;;;13.10;;
53688;SDS011;39583;54.682;30.662;2022-07-23T10:02:05;19.45;;;18.17;;
53688;SDS011;39583;54.682;30.662;2022-07-23T10:04:43;31.63;;;29.85;;
53688;SDS011;39583;54.682;30.662;2022-07-23T10:07:16;35.58;;;33.55;;
53688;SDS011;39583;54.682;30.662;2022-07-23T10:10:06;15.50;;;14.70;;
53688;SDS011;39583;54.682;30.662;2022-07-23T10:12:46;36.40;;;34.25;;
53688;SDS011;39583;54.682;30.662;2022-07-23T10:15:31;43.28;;;40.85;;
53688;SDS011;39583;54.682;30.662;2022-07-23T10:17:58;39.70;;;37.58;;
53688;SDS011;39583;54.682;30.662;2022-07-23T10:20:24;21.42;;;20.25;;
53688;SDS011;39583;54.682;30.662;2022-07-23T10:31:40;26.98;;;25.38;;
53688;SDS011;39583;54.682;30.662;2022-07-23T10:42:44;38.28;;;36.08;;
53688;SDS011;39583;54.682;30.662;2022-07-23T10:45:25;32.92;;;31.13;;
53688;SDS011;39583;54.682;30.662;2022-07-23T10:47:56;43.38;;;41.05;;
53688;SDS011;39583;54.682;30.662;2022-07-23T10:50:45;33.83;;;31.95;;
53688;SDS011;39583;54.682;30.662;2022-07-23T10:59:24;37.45;;;35.40;;
53688;SDS011;39583;54.682;30.662;2022-07-23T11:01:51;32.40;;;30.60;;
53688;SDS011;39583;54.682;30.662;2022-07-23T11:04:17;37.88;;;35.17;;
53688;SDS011;39583;54.682;30.662;2022-07-23T11:09:24;39.05;;;36.95;;
53688;SDS011;39583;54.682;30.662;2022-07-23T11:17:30;22.67;;;21.42;;
53688;SDS011;39583;54.682;30.662;2022-07-23T11:25:09;28.52;;;26.95;;
53688;SDS011;39583;54.682;30.662;2022-07-23T11:30:07;36.58;;;34.58;;
53688;SDS011;39583;54.682;30.662;2022-07-23T11:32:40;44.00;;;41.33;;
53688;SDS011;39583;54.682;30.662;2022-07-23T11:35:27;20.83;;;19.77;;
53688;SDS011;39583;54.682;30.662;2022-07-23T11:37:54;39.30;;;37.22;;
53688;SDS011;39583;54.682;30.662;2022-07-23T11:40:30;16.02;;;14.93;;
53688;SDS011;39583;54.682;30.662;2022-07-23T11:45:34;15.52;;;14.65;;
53688;SDS011;39583;54.682;30.662;2022-07-23T11:48:03;15.93;;;15.05;;
53688;SDS011;39583;54.682;30.662;2022-07-23T11:50:32;33.10;;;31.30;;
53688;SDS011;39583;54.682;30.662;2022-07-23T11:52:59;34.97;;;32.83;;
53688;SDS011;39583;54.682;30.662;2022-07-23T11:55:26;14.50;;;13.73;;
53688;SDS011;39583;54.682;30.662;2022-07-23T11:57:54;22.42;;;20.38;;
53688;SDS011;39583;54.682;30.662;2022-07-23T12:00:26;26.15;;;24.75;;
53688;SDS011;39583;54.682;30.662;2022-07-23T12:02:58;19.65;;;18.48;;
53688;SDS011;39583;54.682;30.662;2022-07-23T12:05:31;20.05;;;19.00;;
53688;SDS011;39583;54.682;30.662;2022-07-23T12:07:59;15.63;;;14.80;;
53688;SDS011;39583;54.682;30.662;2022-07-23T12:10:40;33.35;;;31.52;;
53688;SDS011;39583;54.682;30.662;2022-07-23T12:13:10;16.33;;;15.30;;
53688;SDS011;39583;54.682;30.662;2022-07-23T12:15:40;23.42;;;22.15;;
53688;SDS011;39583;54.682;30.662;2022-07-23T12:18:12;14.50;;;13.27;;
53688;SDS011;39583;54.682;30.662;2022-07-23T12:20:46;33.53;;;31.38;;
53688;SDS011;39583;54.682;30.662;2022-07-23T12:23:17;39.15;;;37.05;;
53688;SDS011;39583;54.682;30.662;2022-07-23T12:25:44;20.15;;;19.08;;
53688;SDS011;39583;54.682;30.662;2022-07-23T12:28:13;25.73;;;23.80;;
53688;SDS011;39583;54.682;30.662;2022-07-23T12:30:42;31.83;;;29.83;;
53688;SDS011;39583;54.682;30.662;2022-07-23T12:33:09;57.67;;;54.33;;
53688;SDS011;39583;54.682;30.662;2022-07-23T12:35:38;42.25;;;39.90;;
53688;SDS011;39583;54.682;30.662;2022-07-23T12:38:08;43.05;;;40.70;;
53688;SDS011;39583;54.682;30.662;2022-07-23T12:40:37;19.50;;;18.23;;
53688;SDS011;39583;54.682;30.662;2022-07-23T12:51:18;31.73;;;29.92;;
53688;SDS011;39583;54.682;30.662;2022-07-23T12:53:53;16.25;;;15.38;;
53688;SDS011;39583;54.682;30.662;2022-07-23T12:56:28;18.30;;;17.30;;
53688;SDS011;39583;54.682;30.662;2022-07-23T12:58:57;20.33;;;18.90;;
53688;SDS011;39583;54.682;30.662;2022-07-23T13:01:35;19.15;;;18.08;;
53688;SDS011;39583;54.682;30.662;2022-07-23T13:04:04;32.95;;;31.13;;
53688;SDS011;39583;54.682;30.662;2022-07-23T13:06:41;27.25;;;25.77;;
53688;SDS011;39583;54.682;30.662;2022-07-23T13:09:13;28.17;;;26.63;;
53688;SDS011;39583;54.682;30.662;2022-07-23T13:11:46;36.25;;;34.30;;
53688;SDS011;39583;54.682;30.662;2022-07-23T13:14:14;22.00;;;20.85;;
53688;SDS011;39583;54.682;30.662;2022-07-23T13:16:41;23.08;;;21.73;;
53688;SDS011;39583;54.682;30.662;2022-07-23T13:19:08;62.08;;;58.78;;
53688;SDS011;39583;54.682;30.662;2022-07-23T13:21:35;48.78;;;46.15;;
53688;SDS011;39583;54.682;30.662;2022-07-23T13:24:01;44.85;;;42.35;;
53688;SDS011;39583;54.682;30.662;2022-07-23T13:26:27;26.80;;;25.33;;
53688;SDS011;39583;54.682;30.662;2022-07-23T13:28:54;40.22;;;38.05;;
53688;SDS011;39583;54.682;30.662;2022-07-23T13:31:20;36.75;;;34.80;;
53688;SDS011;39583;54.682;30.662;2022-07-23T13:33:46;47.15;;;44.63;;
53688;SDS011;39583;54.682;30.662;2022-07-23T13:36:13;65.15;;;61.53;;
53688;SDS011;39583;54.682;30.662;2022-07-23T13:38:39;55.50;;;52.45;;
53688;SDS011;39583;54.682;30.662;2022-07-23T13:41:05;27.50;;;25.80;;
53688;SDS011;39583;54.682;30.662;2022-07-23T13:43:32;16.83;;;15.93;;
53688;SDS011;39583;54.682;30.662;2022-07-23T13:45:59;29.73;;;27.98;;
53688;SDS011;39583;54.682;30.662;2022-07-23T13:48:26;23.05;;;21.65;;
53688;SDS011;39583;54.682;30.662;2022-07-23T13:50:54;15.93;;;14.95;;
53688;SDS011;39583;54.682;30.662;2022-07-23T13:53:22;24.33;;;22.90;;
53688;SDS011;39583;54.682;30.662;2022-07-23T13:55:50;27.52;;;25.67;;
53688;SDS011;39583;54.682;30.662;2022-07-23T13:58:17;32.53;;;30.60;;
53688;SDS011;39583;54.682;30.662;2022-07-23T14:00:45;23.55;;;22.08;;
53688;SDS011;39583;54.682;30.662;2022-07-23T14:03:13;19.52;;;18.35;;
53688;SDS011;39583;54.682;30.662;2022-07-23T14:05:42;15.68;;;14.52;;
53688;SDS011;39583;54.682;30.662;2022-07-23T14:08:08;21.00;;;19.83;;
53688;SDS011;39583;54.682;30.662;2022-07-23T14:10:35;19.13;;;17.95;;
53688;SDS011;39583;54.682;30.662;2022-07-23T14:13:02;19.55;;;18.10;;
53688;SDS011;39583;54.682;30.662;2022-07-23T14:15:30;18.73;;;17.67;;
53688;SDS011;39583;54.682;30.662;2022-07-23T14:17:57;18.52;;;17.38;;
53688;SDS011;39583;54.682;30.662;2022-07-23T14:20:23;16.30;;;15.45;;
53688;SDS011;39583;54.682;30.662;2022-07-23T14:22:51;18.52;;;17.23;;
53688;SDS011;39583;54.682;30.662;2022-07-23T14:25:17;18.75;;;17.75;;
53688;SDS011;39583;54.682;30.662;2022-07-23T14:27:44;17.00;;;16.08;;
53688;SDS011;39583;54.682;30.662;2022-07-23T14:30:12;16.60;;;15.23;;
53688;SDS011;39583;54.682;30.662;2022-07-23T14:32:40;18.65;;;17.65;;
53688;SDS011;39583;54.682;30.662;2022-07-23T14:35:07;19.40;;;18.30;;
53688;SDS011;39583;54.682;30.662;2022-07-23T14:37:33;37.00;;;34.95;;
53688;SDS011;39583;54.682;30.662;2022-07-23T14:40:00;49.67;;;46.95;;
53688;SDS011;39583;54.682;30.662;2022-07-23T14:42:26;47.10;;;44.53;;
53688;SDS011;39583;54.682;30.662;2022-07-23T14:44:52;30.20;;;28.20;;
53688;SDS011;39583;54.682;30.662;2022-07-23T14:47:19;25.50;;;24.13;;
53688;SDS011;39583;54.682;30.662;2022-07-23T14:49:45;28.38;;;26.58;;
53688;SDS011;39583;54.682;30.662;2022-07-23T14:52:11;21.23;;;20.02;;
53688;SDS011;39583;54.682;30.662;2022-07-23T14:54:37;18.05;;;16.85;;
53688;SDS011;39583;54.682;30.662;2022-07-23T14:57:04;25.75;;;24.02;;
53688;SDS011;39583;54.682;30.662;2022-07-23T14:59:30;18.05;;;17.05;;
53688;SDS011;39583;54.682;30.662;2022-07-23T15:01:57;32.15;;;30.23;;
53688;SDS011;39583;54.682;30.662;2022-07-23T15:04:23;27.77;;;25.98;;
53688;SDS011;39583;54.682;30.662;2022-07-23T15:06:50;30.63;;;28.83;;
53688;SDS011;39583;54.682;30.662;2022-07-23T15:09:17;36.05;;;34.08;;
53688;SDS011;39583;54.682;30.662;2022-07-23T15:11:43;47.13;;;44.58;;
53688;SDS011;39583;54.682;30.662;2022-07-23T15:14:10;30.65;;;28.83;;
53688;SDS011;39583;54.682;30.662;2022-07-23T15:16:36;30.30;;;28.55;;
53688;SDS011;39583;54.682;30.662;2022-07-23T15:19:03;58.08;;;54.75;;
53688;SDS011;39583;54.682;30.662;2022-07-23T15:21:30;57.63;;;54.22;;
53688;SDS011;39583;54.682;30.662;2022-07-23T15:23:56;30.98;;;29.23;;
53688;SDS011;39583;54.682;30.662;2022-07-23T15:26:26;29.83;;;28.23;;
53688;SDS011;39583;54.682;30.662;2022-07-23T15:28:53;43.22;;;40.83;;
53688;SDS011;39583;54.682;30.662;2022-07-23T15:31:20;30.77;;;29.02;;
53688;SDS011;39583;54.682;30.662;2022-07-23T15:33:47;49.42;;;46.63;;
53688;SDS011;39583;54.682;30.662;2022-07-23T15:36:13;52.53;;;49.30;;
53688;SDS011;39583;54.682;30.662;2022-07-23T15:38:39;39.10;;;36.75;;
53688;SDS011;39583;54.682;30.662;2022-07-23T15:41:06;58.00;;;54.45;;
53688;SDS011;39583;54.682;30.662;2022-07-23T15:43:32;27.85;;;26.23;;
53688;SDS011;39583;54.682;30.662;2022-07-23T15:45:59;51.70;;;48.70;;
53688;SDS011;39583;54.682;30.662;2022-07-23T15:48:25;70.80;;;66.82;;
53688;SDS011;39583;54.682;30.662;2022-07-23T15:50:51;57.08;;;53.85;;
53688;SDS011;39583;54.682;30.662;2022-07-23T15:53:18;47.47;;;44.67;;
53688;SDS011;39583;54.682;30.662;2022-07-23T15:55:44;62.53;;;59.03;;
53688;SDS011;39583;54.682;30.662;2022-07-23T15:58:11;66.30;;;62.65;;
53688;SDS011;39583;54.682;30.662;2022-07-23T16:00:38;77.90;;;73.43;;
53688;SDS011;39583;54.682;30.662;2022-07-23T16:03:05;98.38;;;92.47;;
53688;SDS011;39583;54.682;30.662;2022-07-23T16:05:31;109.40;;;102.82;;
53688;SDS011;39583;54.682;30.662;2022-07-23T16:08:01;109.88;;;103.22;;
53688;SDS011;39583;54.682;30.662;2022-07-23T16:10:29;103.78;;;97.45;;
53688;SDS011;39583;54.682;30.662;2022-07-23T16:12:55;100.93;;;94.82;;
53688;SDS011;39583;54.682;30.662;2022-07-23T16:15:21;114.93;;;107.75;;
53688;SDS011;39583;54.682;30.662;2022-07-23T16:17:48;120.93;;;113.55;;
53688;SDS011;39583;54.682;30.662;2022-07-23T16:20:14;129.85;;;121.45;;
53688;SDS011;39583;54.682;30.662;2022-07-23T16:22:40;128.05;;;120.32;;
53688;SDS011;39583;54.682;30.662;2022-07-23T16:25:07;123.53;;;116.05;;
53688;SDS011;39583;54.682;30.662;2022-07-23T16:27:35;130.77;;;122.47;;
53688;SDS011;39583;54.682;30.662;2022-07-23T16:30:03;119.32;;;112.00;;
53688;SDS011;39583;54.682;30.662;2022-07-23T16:32:30;129.27;;;121.43;;
53688;SDS011;39583;54.682;30.662;2022-07-23T16:35:00;117.47;;;109.55;;
53688;SDS011;39583;54.682;30.662;2022-07-23T16:37:26;119.28;;;111.47;;
53688;SDS011;39583;54.682;30.662;2022-07-23T16:39:53;130.02;;;122.07;;
53688;SDS011;39583;54.682;30.662;2022-07-23T16:42:19;116.57;;;109.70;;
53688;SDS011;39583;54.682;30.662;2022-07-23T16:44:45;113.57;;;106.78;;
53688;SDS011;39583;54.682;30.662;2022-07-23T16:47:12;115.68;;;108.47;;
53688;SDS011;39583;54.682;30.662;2022-07-23T16:49:38;131.77;;;123.75;;
53688;SDS011;39583;54.682;30.662;2022-07-23T16:52:04;126.70;;;118.68;;
53688;SDS011;39583;54.682;30.662;2022-07-23T16:54:31;112.35;;;105.38;;
53688;SDS011;39583;54.682;30.662;2022-07-23T16:56:58;107.80;;;101.15;;
53688;SDS011;39583;54.682;30.662;2022-07-23T16:59:24;101.43;;;95.13;;
53688;SDS011;39583;54.682;30.662;2022-07-23T17:01:51;95.63;;;89.70;;
53688;SDS011;39583;54.682;30.662;2022-07-23T17:04:17;90.25;;;84.70;;
53688;SDS011;39583;54.682;30.662;2022-07-23T17:06:44;91.13;;;85.47;;
53688;SDS011;39583;54.682;30.662;2022-07-23T17:09:11;90.43;;;84.43;;
53688;SDS011;39583;54.682;30.662;2022-07-23T17:11:37;90.93;;;84.85;;
53688;SDS011;39583;54.682;30.662;2022-07-23T17:14:04;90.32;;;83.55;;
53688;SDS011;39583;54.682;30.662;2022-07-23T17:16:31;83.07;;;77.85;;
53688;SDS011;39583;54.682;30.662;2022-07-23T17:18:58;95.70;;;89.63;;
53688;SDS011;39583;54.682;30.662;2022-07-23T17:21:26;103.25;;;96.78;;
53688;SDS011;39583;54.682;30.662;2022-07-23T17:23:53;100.15;;;93.97;;
53688;SDS011;39583;54.682;30.662;2022-07-23T17:26:19;97.38;;;91.57;;
53688;SDS011;39583;54.682;30.662;2022-07-23T17:28:45;92.55;;;86.78;;
53688;SDS011;39583;54.682;30.662;2022-07-23T17:31:12;95.68;;;89.70;;
53688;SDS011;39583;54.682;30.662;2022-07-23T17:33:38;99.43;;;93.57;;
53688;SDS011;39583;54.682;30.662;2022-07-23T17:36:05;92.40;;;86.90;;
53688;SDS011;39583;54.682;30.662;2022-07-23T17:38:32;100.68;;;93.88;;
53688;SDS011;39583;54.682;30.662;2022-07-23T17:40:58;99.35;;;93.18;;
53688;SDS011;39583;54.682;30.662;2022-07-23T17:43:25;96.07;;;89.82;;
53688;SDS011;39583;54.682;30.662;2022-07-23T17:45:51;90.93;;;85.57;;
53688;SDS011;39583;54.682;30.662;2022-07-23T17:48:17;93.93;;;88.45;;
53688;SDS011;39583;54.682;30.662;2022-07-23T17:50:44;92.47;;;87.20;;
53688;SDS011;39583;54.682;30.662;2022-07-23T17:53:10;87.32;;;82.30;;
53688;SDS011;39583;54.682;30.662;2022-07-23T17:55:36;89.20;;;84.05;;
53688;SDS011;39583;54.682;30.662;2022-07-23T17:58:03;86.07;;;81.05;;
53688;SDS011;39583;54.682;30.662;2022-07-23T18:00:31;86.68;;;80.63;;
53688;SDS011;39583;54.682;30.662;2022-07-23T18:03:00;81.90;;;77.05;;
53688;SDS011;39583;54.682;30.662;2022-07-23T18:05:27;85.68;;;80.60;;
53688;SDS011;39583;54.682;30.662;2022-07-23T18:07:54;78.18;;;73.75;;
53688;SDS011;39583;54.682;30.662;2022-07-23T18:10:22;88.07;;;83.10;;
53688;SDS011;39583;54.682;30.662;2022-07-23T18:12:49;86.68;;;81.32;;
53688;SDS011;39583;54.682;30.662;2022-07-23T18:15:15;86.80;;;81.72;;
53688;SDS011;39583;54.682;30.662;2022-07-23T18:17:41;86.07;;;80.85;;
53688;SDS011;39583;54.682;30.662;2022-07-23T18:20:09;89.95;;;84.65;;
53688;SDS011;39583;54.682;30.662;2022-07-23T18:22:36;81.78;;;77.00;;
53688;SDS011;39583;54.682;30.662;2022-07-23T18:25:03;87.55;;;82.65;;
53688;SDS011;39583;54.682;30.662;2022-07-23T18:27:32;92.63;;;87.25;;
53688;SDS011;39583;54.682;30.662;2022-07-23T18:29:59;94.28;;;88.40;;
53688;SDS011;39583;54.682;30.662;2022-07-23T18:32:26;90.45;;;85.13;;
53688;SDS011;39583;54.682;30.662;2022-07-23T18:34:53;92.55;;;86.97;;
53688;SDS011;39583;54.682;30.662;2022-07-23T18:37:19;95.10;;;88.47;;
53688;SDS011;39583;54.682;30.662;2022-07-23T18:39:46;102.97;;;96.15;;
53688;SDS011;39583;54.682;30.662;2022-07-23T18:42:12;98.32;;;92.13;;
53688;SDS011;39583;54.682;30.662;2022-07-23T18:44:38;96.43;;;89.97;;
53688;SDS011;39583;54.682;30.662;2022-07-23T18:47:05;103.95;;;97.32;;
53688;SDS011;39583;54.682;30.662;2022-07-23T18:49:32;108.25;;;101.55;;
53688;SDS011;39583;54.682;30.662;2022-07-23T18:51:59;93.53;;;87.45;;
53688;SDS011;39583;54.682;30.662;2022-07-23T18:54:26;92.18;;;86.47;;
53688;SDS011;39583;54.682;30.662;2022-07-23T18:56:53;98.13;;;91.80;;
53688;SDS011;39583;54.682;30.662;2022-07-23T18:59:19;94.80;;;88.78;;
53688;SDS011;39583;54.682;30.662;2022-07-23T19:01:46;93.32;;;87.72;;
53688;SDS011;39583;54.682;30.662;2022-07-23T19:04:13;97.63;;;91.63;;
53688;SDS011;39583;54.682;30.662;2022-07-23T19:06:39;98.18;;;92.20;;
53688;SDS011;39583;54.682;30.662;2022-07-23T19:09:06;94.60;;;89.03;;
53688;SDS011;39583;54.682;30.662;2022-07-23T19:11:32;103.07;;;96.53;;
53688;SDS011;39583;54.682;30.662;2022-07-23T19:13:59;93.90;;;88.47;;
53688;SDS011;39583;54.682;30.662;2022-07-23T19:16:25;107.72;;;101.00;;
53688;SDS011;39583;54.682;30.662;2022-07-23T19:18:52;97.10;;;91.13;;
53688;SDS011;39583;54.682;30.662;2022-07-23T19:21:18;98.70;;;92.88;;
53688;SDS011;39583;54.682;30.662;2022-07-23T19:23:44;89.78;;;84.28;;
53688;SDS011;39583;54.682;30.662;2022-07-23T19:26:11;101.47;;;95.28;;
53688;SDS011;39583;54.682;30.662;2022-07-23T19:28:37;102.75;;;96.50;;
53688;SDS011;39583;54.682;30.662;2022-07-23T19:31:04;105.35;;;98.85;;
53688;SDS011;39583;54.682;30.662;2022-07-23T19:33:30;97.78;;;91.55;;
53688;SDS011;39583;54.682;30.662;2022-07-23T19:35:57;102.95;;;96.60;;
53688;SDS011;39583;54.682;30.662;2022-07-23T19:38:23;114.13;;;106.35;;
53688;SDS011;39583;54.682;30.662;2022-07-23T19:40:49;93.97;;;88.22;;
53688;SDS011;39583;54.682;30.662;2022-07-23T19:43:16;99.90;;;93.80;;
53688;SDS011;39583;54.682;30.662;2022-07-23T19:45:42;109.35;;;102.80;;
53688;SDS011;39583;54.682;30.662;2022-07-23T19:48:09;103.07;;;96.88;;
53688;SDS011;39583;54.682;30.662;2022-07-23T19:50:35;103.70;;;97.00;;
53688;SDS011;39583;54.682;30.662;2022-07-23T19:53:01;115.60;;;108.45;;
53688;SDS011;39583;54.682;30.662;2022-07-23T19:55:28;82.13;;;77.32;;
53688;SDS011;39583;54.682;30.662;2022-07-23T19:57:56;105.75;;;98.88;;
53688;SDS011;39583;54.682;30.662;2022-07-23T20:00:22;104.85;;;98.43;;
53688;SDS011;39583;54.682;30.662;2022-07-23T20:02:49;97.10;;;91.18;;
53688;SDS011;39583;54.682;30.662;2022-07-23T20:05:16;101.68;;;95.40;;
53688;SDS011;39583;54.682;30.662;2022-07-23T20:07:42;106.30;;;99.93;;
53688;SDS011;39583;54.682;30.662;2022-07-23T20:10:09;106.50;;;100.13;;
53688;SDS011;39583;54.682;30.662;2022-07-23T20:12:37;92.85;;;87.40;;
53688;SDS011;39583;54.682;30.662;2022-07-23T20:15:05;110.03;;;103.45;;
53688;SDS011;39583;54.682;30.662;2022-07-23T20:17:33;103.10;;;96.65;;
